createdAt,value
2016-06-04T00:00:31.417Z,64.69
2016-06-04T00:01:31.435Z,64.6
2016-06-04T00:02:31.469Z,64.31
2016-06-04T00:03:31.502Z,64.5
2016-06-04T00:04:31.522Z,64.31
2016-06-04T00:05:31.539Z,65.08
2016-06-04T00:06:31.558Z,64.69
2016-06-04T00:07:31.592Z,65.08
2016-06-04T00:08:31.610Z,64.6
2016-06-04T00:09:31.644Z,64.79
2016-06-04T00:10:31.678Z,65.08
2016-06-04T00:11:31.696Z,65.08
2016-06-04T00:12:31.714Z,64.98
2016-06-04T00:13:31.749Z,64.98
2016-06-04T00:14:31.767Z,64.79
2016-06-04T00:15:31.801Z,64.89
2016-06-04T00:16:31.834Z,65.23
2016-06-04T00:17:31.853Z,64.69
2016-06-04T00:18:31.871Z,64.89
2016-06-04T00:19:31.905Z,64.56
2016-06-04T00:20:31.940Z,64.89
2016-06-04T00:21:31.942Z,64.89
2016-06-04T00:22:31.976Z,64.98
2016-06-04T00:23:31.994Z,64.95
2016-06-04T00:24:32.028Z,64.89
2016-06-04T00:25:32.047Z,65.08
2016-06-04T00:26:32.096Z,65.14
2016-06-04T00:27:32.098Z,65.08
2016-06-04T00:28:32.132Z,65.05
2016-06-04T00:29:32.151Z,65.33
2016-06-04T00:30:32.169Z,65.14
2016-06-04T00:31:32.203Z,65.33
2016-06-04T00:32:32.236Z,65.33
2016-06-04T00:33:32.271Z,64.95
2016-06-04T00:34:32.289Z,65.43
2016-06-04T00:35:32.308Z,65.53
2016-06-04T00:36:32.341Z,65.14
2016-06-04T00:37:32.360Z,65.23
2016-06-04T00:38:32.378Z,65.23
2016-06-04T00:39:32.413Z,65.33
2016-06-04T00:40:32.274Z,65.14
2016-06-04T00:41:32.605Z,65.23
2016-06-04T00:42:32.483Z,65.14
2016-06-04T00:43:32.548Z,65.23
2016-06-04T00:44:32.551Z,64.95
2016-06-04T00:45:32.568Z,65.23
2016-06-04T00:46:32.588Z,65.33
2016-06-04T00:47:32.621Z,65.33
2016-06-04T00:48:32.640Z,65.33
2016-06-04T00:49:32.673Z,65.23
2016-06-04T00:50:32.692Z,65.23
2016-06-04T00:51:32.726Z,65.23
2016-06-04T00:52:32.744Z,65.23
2016-06-04T00:53:32.779Z,65.33
2016-06-04T00:54:32.796Z,65.05
2016-06-04T00:55:32.908Z,65.05
2016-06-04T00:56:32.848Z,65.05
2016-06-04T00:57:32.867Z,65.33
2016-06-04T00:58:32.901Z,65.05
2016-06-04T00:59:32.931Z,65.05
2016-06-04T01:00:32.999Z,65.23
2016-06-04T01:01:33.050Z,65.05
2016-06-04T01:02:33.118Z,65.05
2016-06-04T01:03:33.170Z,65.14
2016-06-04T01:04:33.213Z,65.23
2016-06-04T01:05:33.259Z,65.33
2016-06-04T01:06:33.306Z,65.05
2016-06-04T01:07:33.335Z,65.14
2016-06-04T01:08:33.366Z,65.05
2016-06-04T01:09:33.408Z,65.05
2016-06-04T01:10:33.431Z,65.05
2016-06-04T01:11:34.032Z,65.23
2016-06-04T01:12:33.492Z,65.05
2016-06-04T01:13:33.530Z,65.05
2016-06-04T01:14:33.552Z,65.05
2016-06-04T01:15:33.571Z,65.05
2016-06-04T01:16:33.606Z,65.05
2016-06-04T01:17:33.642Z,65.05
2016-06-04T01:18:33.662Z,65.05
2016-06-04T01:19:33.697Z,65.05
2016-06-04T01:20:33.715Z,65.05
2016-06-04T01:21:33.750Z,64.95
2016-06-04T01:22:33.769Z,65.05
2016-06-04T01:23:33.803Z,65.05
2016-06-04T01:24:33.666Z,64.95
2016-06-04T01:25:33.841Z,65.05
2016-06-04T01:26:34.312Z,64.95
2016-06-04T01:27:33.893Z,65.23
2016-06-04T01:28:33.928Z,65.14
2016-06-04T01:29:33.946Z,65.14
2016-06-04T01:30:33.981Z,64.85
2016-06-04T01:31:33.999Z,65.05
2016-06-04T01:32:34.032Z,65.05
2016-06-04T01:33:34.051Z,64.95
2016-06-04T01:34:34.116Z,65.43
2016-06-04T01:35:34.104Z,65.05
2016-06-04T01:36:34.122Z,65.14
2016-06-04T01:37:34.156Z,65.14
2016-06-04T01:38:34.174Z,65.05
2016-06-04T01:39:34.192Z,65.23
2016-06-04T01:40:34.226Z,65.14
2016-06-04T01:41:34.104Z,65.23
2016-06-04T01:42:34.294Z,65.05
2016-06-04T01:43:34.328Z,64.95
2016-06-04T01:44:34.331Z,65.05
2016-06-04T01:45:34.349Z,65.14
2016-06-04T01:46:34.383Z,64.85
2016-06-04T01:47:34.402Z,65.05
2016-06-04T01:48:34.436Z,65.14
2016-06-04T01:49:34.453Z,65.43
2016-06-04T01:50:34.488Z,65.33
2016-06-04T01:51:34.505Z,65.43
2016-06-04T01:52:34.524Z,65.43
2016-06-04T01:53:34.558Z,65.72
2016-06-04T01:54:34.591Z,65.05
2016-06-04T01:55:34.610Z,65.05
2016-06-04T01:56:34.722Z,65.23
2016-06-04T01:57:34.663Z,65.81
2016-06-04T01:58:34.682Z,65.91
2016-06-04T01:59:34.715Z,65.81
2016-06-04T02:00:34.732Z,65.43
2016-06-04T02:01:34.611Z,65.62
2016-06-04T02:02:34.785Z,65.62
2016-06-04T02:03:34.819Z,65.81
2016-06-04T02:04:34.838Z,65.72
2016-06-04T02:05:34.887Z,65.72
2016-06-04T02:06:34.920Z,65.53
2016-06-04T02:07:34.924Z,65.62
2016-06-04T02:08:34.942Z,65.72
2016-06-04T02:09:34.975Z,65.72
2016-06-04T02:10:34.995Z,65.62
2016-06-04T02:11:35.170Z,65.72
2016-06-04T02:12:35.046Z,65.62
2016-06-04T02:13:35.065Z,65.62
2016-06-04T02:14:35.099Z,65.72
2016-06-04T02:15:35.148Z,65.62
2016-06-04T02:16:35.150Z,65.62
2016-06-04T02:17:35.169Z,65.53
2016-06-04T02:18:35.203Z,65.53
2016-06-04T02:19:35.222Z,65.72
2016-06-04T02:20:35.240Z,65.62
2016-06-04T02:21:35.118Z,65.53
2016-06-04T02:22:35.292Z,65.33
2016-06-04T02:23:35.311Z,65.53
2016-06-04T02:24:35.345Z,65.62
2016-06-04T02:25:35.363Z,65.43
2016-06-04T02:26:35.802Z,65.14
2016-06-04T02:27:35.430Z,65.72
2016-06-04T02:28:35.449Z,65.53
2016-06-04T02:29:35.467Z,65.53
2016-06-04T02:30:35.501Z,65.43
2016-06-04T02:31:35.535Z,65.62
2016-06-04T02:32:35.398Z,65.33
2016-06-04T02:33:35.571Z,65.72
2016-06-04T02:34:35.606Z,65.62
2016-06-04T02:35:35.624Z,65.53
2016-06-04T02:36:35.674Z,65.81
2016-06-04T02:37:35.676Z,65.43
2016-06-04T02:38:35.709Z,65.72
2016-06-04T02:39:35.729Z,65.53
2016-06-04T02:40:35.637Z,65.81
2016-06-04T02:41:36.687Z,65.33
2016-06-04T02:42:35.800Z,65.53
2016-06-04T02:43:35.833Z,65.62
2016-06-04T02:44:35.851Z,65.81
2016-06-04T02:45:35.886Z,65.72
2016-06-04T02:46:35.919Z,65.62
2016-06-04T02:47:35.938Z,66
2016-06-04T02:48:35.955Z,65.81
2016-06-04T02:49:35.974Z,65.81
2016-06-04T02:50:36.008Z,65.91
2016-06-04T02:51:36.042Z,65.62
2016-06-04T02:52:36.060Z,65.91
2016-06-04T02:53:36.079Z,65.91
2016-06-04T02:54:36.113Z,65.72
2016-06-04T02:55:36.131Z,65.53
2016-06-04T02:56:36.165Z,66.1
2016-06-04T02:57:36.183Z,65.91
2016-06-04T02:58:36.217Z,65.62
2016-06-04T02:59:36.235Z,65.81
2016-06-04T03:00:36.285Z,65.91
2016-06-04T03:01:36.288Z,65.72
2016-06-04T03:02:36.306Z,65.62
2016-06-04T03:03:36.340Z,65.91
2016-06-04T03:04:36.359Z,65.91
2016-06-04T03:05:36.393Z,65.72
2016-06-04T03:06:36.410Z,65.72
2016-06-04T03:07:36.429Z,65.72
2016-06-04T03:08:36.463Z,65.91
2016-06-04T03:09:36.481Z,65.53
2016-06-04T03:10:36.593Z,66.1
2016-06-04T03:11:36.548Z,66.1
2016-06-04T03:12:36.567Z,65.72
2016-06-04T03:13:36.601Z,66.2
2016-06-04T03:14:36.620Z,66.1
2016-06-04T03:15:36.638Z,66.1
2016-06-04T03:16:36.672Z,65.91
2016-06-04T03:17:36.706Z,66.2
2016-06-04T03:18:36.739Z,65.81
2016-06-04T03:19:36.743Z,65.62
2016-06-04T03:20:36.761Z,65.91
2016-06-04T03:21:36.794Z,66.1
2016-06-04T03:22:36.814Z,66.2
2016-06-04T03:23:36.847Z,66.2
2016-06-04T03:24:36.866Z,66.1
2016-06-04T03:25:37.743Z,66.1
2016-06-04T03:26:37.621Z,66.39
2016-06-04T03:27:36.952Z,66.39
2016-06-04T03:28:36.970Z,66.3
2016-06-04T03:29:36.988Z,66.39
2016-06-04T03:30:37.022Z,66.49
2016-06-04T03:31:37.041Z,66.3
2016-06-04T03:32:37.075Z,66.39
2016-06-04T03:33:37.092Z,65.91
2016-06-04T03:34:37.127Z,66
2016-06-04T03:35:37.145Z,66
2016-06-04T03:36:37.163Z,66.1
2016-06-04T03:37:37.197Z,66.3
2016-06-04T03:38:37.231Z,66.16
2016-06-04T03:39:37.249Z,66.3
2016-06-04T03:40:37.627Z,66.16
2016-06-04T03:41:38.161Z,66.2
2016-06-04T03:42:37.336Z,66.1
2016-06-04T03:43:37.353Z,66.1
2016-06-04T03:44:37.372Z,65.97
2016-06-04T03:45:37.406Z,66.1
2016-06-04T03:46:37.425Z,65.97
2016-06-04T03:47:37.443Z,66.2
2016-06-04T03:48:37.477Z,66.07
2016-06-04T03:49:37.495Z,66.07
2016-06-04T03:50:37.528Z,66.1
2016-06-04T03:51:37.547Z,65.88
2016-06-04T03:52:37.580Z,66.07
2016-06-04T03:53:37.600Z,66.07
2016-06-04T03:54:37.633Z,66.07
2016-06-04T03:55:37.746Z,66.07
2016-06-04T03:56:38.013Z,66.07
2016-06-04T03:57:37.704Z,66.07
2016-06-04T03:58:37.722Z,66.16
2016-06-04T03:59:37.757Z,66.16
2016-06-04T04:00:37.774Z,66.16
2016-06-04T04:01:37.808Z,65.78
2016-06-04T04:02:37.827Z,66.36
2016-06-04T04:03:37.861Z,66.49
2016-06-04T04:04:37.879Z,65.91
2016-06-04T04:05:37.913Z,67.07
2016-06-04T04:06:37.947Z,66.46
2016-06-04T04:07:37.965Z,66.46
2016-06-04T04:08:37.984Z,66.26
2016-06-04T04:09:38.001Z,66.26
2016-06-04T04:10:38.489Z,66.49
2016-06-04T04:11:38.148Z,66.49
2016-06-04T04:12:38.088Z,66.07
2016-06-04T04:13:38.106Z,66.46
2016-06-04T04:14:38.140Z,66.36
2016-06-04T04:15:38.175Z,66.39
2016-06-04T04:16:38.192Z,66.2
2016-06-04T04:17:38.211Z,66.07
2016-06-04T04:18:38.245Z,66.16
2016-06-04T04:19:38.263Z,66.55
2016-06-04T04:20:38.281Z,66.64
2016-06-04T04:21:38.300Z,66.46
2016-06-04T04:22:38.334Z,66.55
2016-06-04T04:23:38.367Z,66.55
2016-06-04T04:24:38.386Z,66.55
2016-06-04T04:25:39.077Z,66.55
2016-06-04T04:26:38.455Z,66.55
2016-06-04T04:27:38.472Z,66.55
2016-06-04T04:28:38.491Z,66.36
2016-06-04T04:29:38.541Z,66.55
2016-06-04T04:30:38.543Z,66.16
2016-06-04T04:31:38.560Z,66.64
2016-06-04T04:32:38.610Z,66.36
2016-06-04T04:33:38.613Z,66.55
2016-06-04T04:34:38.632Z,66.55
2016-06-04T04:35:38.681Z,66.36
2016-06-04T04:36:38.684Z,66.46
2016-06-04T04:37:38.718Z,66.64
2016-06-04T04:38:38.736Z,66.26
2016-06-04T04:39:38.771Z,66.55
2016-06-04T04:40:38.788Z,66.55
2016-06-04T04:41:38.823Z,66.55
2016-06-04T04:42:38.840Z,66.46
2016-06-04T04:43:38.859Z,66.55
2016-06-04T04:44:38.893Z,66.64
2016-06-04T04:45:38.927Z,66.55
2016-06-04T04:46:38.945Z,66.46
2016-06-04T04:47:38.964Z,66.64
2016-06-04T04:48:38.997Z,66.46
2016-06-04T04:49:39.016Z,66.26
2016-06-04T04:50:38.878Z,66.55
2016-06-04T04:51:39.068Z,66.16
2016-06-04T04:52:39.102Z,66.26
2016-06-04T04:53:39.120Z,66.16
2016-06-04T04:54:39.139Z,66.64
2016-06-04T04:55:39.173Z,66.16
2016-06-04T04:56:39.191Z,66.16
2016-06-04T04:57:39.224Z,66.55
2016-06-04T04:58:39.244Z,66.16
2016-06-04T04:59:39.277Z,66.46
2016-06-04T05:00:39.295Z,66.36
2016-06-04T05:01:39.344Z,66.46
2016-06-04T05:02:39.379Z,66.16
2016-06-04T05:03:39.366Z,66.36
2016-06-04T05:04:39.400Z,66.07
2016-06-04T05:05:39.418Z,66.36
2016-06-04T05:06:39.437Z,66.07
2016-06-04T05:07:39.471Z,66.36
2016-06-04T05:08:39.488Z,66.26
2016-06-04T05:09:39.523Z,66.46
2016-06-04T05:10:39.541Z,66.26
2016-06-04T05:11:40.309Z,66.55
2016-06-04T05:12:39.624Z,66.26
2016-06-04T05:13:39.627Z,66.97
2016-06-04T05:14:39.490Z,67.13
2016-06-04T05:15:39.679Z,66.46
2016-06-04T05:16:39.697Z,66.16
2016-06-04T05:17:39.717Z,66.3
2016-06-04T05:18:39.750Z,66.16
2016-06-04T05:19:39.768Z,66.87
2016-06-04T05:20:39.803Z,66.07
2016-06-04T05:21:39.821Z,66.07
2016-06-04T05:22:39.839Z,66.26
2016-06-04T05:23:39.872Z,65.97
2016-06-04T05:24:39.892Z,66.07
2016-06-04T05:25:40.191Z,66.07
2016-06-04T05:26:39.803Z,66.1
2016-06-04T05:27:39.977Z,66.07
2016-06-04T05:28:39.996Z,66.58
2016-06-04T05:29:40.030Z,65.88
2016-06-04T05:30:40.047Z,65.91
2016-06-04T05:31:40.097Z,65.88
2016-06-04T05:32:40.116Z,66.07
2016-06-04T05:33:40.119Z,65.88
2016-06-04T05:34:40.152Z,65.88
2016-06-04T05:35:40.171Z,66.2
2016-06-04T05:36:40.204Z,66.07
2016-06-04T05:37:40.224Z,66.26
2016-06-04T05:38:40.257Z,66.16
2016-06-04T05:39:40.276Z,66.07
2016-06-04T05:40:40.154Z,66.26
2016-06-04T05:41:40.343Z,66.2
2016-06-04T05:42:40.346Z,66.26
2016-06-04T05:43:40.379Z,66.16
2016-06-04T05:44:40.398Z,65.88
2016-06-04T05:45:40.432Z,66.2
2016-06-04T05:46:40.450Z,66.16
2016-06-04T05:47:40.484Z,66.46
2016-06-04T05:48:40.503Z,66.07
2016-06-04T05:49:40.553Z,66.36
2016-06-04T05:50:40.555Z,66.2
2016-06-04T05:51:40.573Z,65.69
2016-06-04T05:52:40.623Z,65.91
2016-06-04T05:53:40.625Z,66.07
2016-06-04T05:54:40.675Z,66.1
2016-06-04T05:55:40.694Z,66.1
2016-06-04T05:56:41.399Z,66.16
2016-06-04T05:57:40.839Z,65.91
2016-06-04T05:58:40.795Z,65.91
2016-06-04T05:59:40.783Z,65.72
2016-06-04T06:00:40.816Z,65.72
2016-06-04T06:01:40.835Z,65.72
2016-06-04T06:02:40.868Z,65.91
2016-06-04T06:03:40.887Z,65.72
2016-06-04T06:04:40.921Z,65.91
2016-06-04T06:05:40.939Z,65.62
2016-06-04T06:06:40.957Z,66
2016-06-04T06:07:40.976Z,65.81
2016-06-04T06:08:41.024Z,65.62
2016-06-04T06:09:41.027Z,65.62
2016-06-04T06:10:41.140Z,65.72
2016-06-04T06:11:41.783Z,65.43
2016-06-04T06:12:41.114Z,65.53
2016-06-04T06:13:41.132Z,65.33
2016-06-04T06:14:41.166Z,65.62
2016-06-04T06:15:41.185Z,65.62
2016-06-04T06:16:41.218Z,65.72
2016-06-04T06:17:41.253Z,65.53
2016-06-04T06:18:41.256Z,65.62
2016-06-04T06:19:41.289Z,65.33
2016-06-04T06:20:41.307Z,65.53
2016-06-04T06:21:41.342Z,65.23
2016-06-04T06:22:41.375Z,65.72
2016-06-04T06:23:41.409Z,65.23
2016-06-04T06:24:41.442Z,64.95
2016-06-04T06:25:41.477Z,65.14
2016-06-04T06:26:41.465Z,65.05
2016-06-04T06:27:41.576Z,64.85
2016-06-04T06:28:41.516Z,65.14
2016-06-04T06:29:41.550Z,65.05
2016-06-04T06:30:41.569Z,65.05
2016-06-04T06:31:41.602Z,65.33
2016-06-04T06:32:41.621Z,65.23
2016-06-04T06:33:41.655Z,65.23
2016-06-04T06:34:41.674Z,64.95
2016-06-04T06:35:41.691Z,65.33
2016-06-04T06:36:41.710Z,65.33
2016-06-04T06:37:41.744Z,65.33
2016-06-04T06:38:41.762Z,65.05
2016-06-04T06:39:41.796Z,65.33
2016-06-04T06:40:42.096Z,65.05
2016-06-04T06:41:41.973Z,65.23
2016-06-04T06:42:41.866Z,64.66
2016-06-04T06:43:41.916Z,64.85
2016-06-04T06:44:41.918Z,65.33
2016-06-04T06:45:41.953Z,64.66
2016-06-04T06:46:41.971Z,64.85
2016-06-04T06:47:42.005Z,65.05
2016-06-04T06:48:42.023Z,64.76
2016-06-04T06:49:42.057Z,64.76
2016-06-04T06:50:42.075Z,64.95
2016-06-04T06:51:42.095Z,64.85
2016-06-04T06:52:42.128Z,64.85
2016-06-04T06:53:42.146Z,65.14
2016-06-04T06:54:42.180Z,64.56
2016-06-04T06:55:42.198Z,64.76
2016-06-04T06:56:42.076Z,64.66
2016-06-04T06:57:42.250Z,64.47
2016-06-04T06:58:42.269Z,64.56
2016-06-04T06:59:42.303Z,64.47
2016-06-04T07:00:42.337Z,64.56
2016-06-04T07:01:42.200Z,64.56
2016-06-04T07:02:42.389Z,64.56
2016-06-04T07:03:42.392Z,64.56
2016-06-04T07:04:42.425Z,64.56
2016-06-04T07:05:42.444Z,64.37
2016-06-04T07:06:42.478Z,64.37
2016-06-04T07:07:42.497Z,64.22
2016-06-04T07:08:42.530Z,64.22
2016-06-04T07:09:42.563Z,64.18
2016-06-04T07:10:42.598Z,64.12
2016-06-04T07:11:42.648Z,63.92
2016-06-04T07:12:42.634Z,64.22
2016-06-04T07:13:42.496Z,64.12
2016-06-04T07:14:42.688Z,63.92
2016-06-04T07:15:42.705Z,63.83
2016-06-04T07:16:42.582Z,64.12
2016-06-04T07:17:42.757Z,63.64
2016-06-04T07:18:42.776Z,63.45
2016-06-04T07:19:42.810Z,63.64
2016-06-04T07:20:42.843Z,63.64
2016-06-04T07:21:42.706Z,63.45
2016-06-04T07:22:42.881Z,63.45
2016-06-04T07:23:42.915Z,63.54
2016-06-04T07:24:42.933Z,63.15
2016-06-04T07:25:43.106Z,63.25
2016-06-04T07:26:43.548Z,63.35
2016-06-04T07:27:43.019Z,63.25
2016-06-04T07:28:43.053Z,63.15
2016-06-04T07:29:43.056Z,62.77
2016-06-04T07:30:43.105Z,62.68
2016-06-04T07:31:43.108Z,62.96
2016-06-04T07:32:43.141Z,62.96
2016-06-04T07:33:43.175Z,63.06
2016-06-04T07:34:43.194Z,62.96
2016-06-04T07:35:43.228Z,62.48
2016-06-04T07:36:43.246Z,62.68
2016-06-04T07:37:43.264Z,62.68
2016-06-04T07:38:43.299Z,62.8
2016-06-04T07:39:43.333Z,62.61
2016-06-04T07:40:43.351Z,62.87
2016-06-04T07:41:43.541Z,62.41
2016-06-04T07:42:43.403Z,62.51
2016-06-04T07:43:43.422Z,62.32
2016-06-04T07:44:43.455Z,62.03
2016-06-04T07:45:43.473Z,62.13
2016-06-04T07:46:43.507Z,62.23
2016-06-04T07:47:43.541Z,62.23
2016-06-04T07:48:43.560Z,62.51
2016-06-04T07:49:43.578Z,62.41
2016-06-04T07:50:43.612Z,62.23
2016-06-04T07:51:43.631Z,62.32
2016-06-04T07:52:43.664Z,62.32
2016-06-04T07:53:43.682Z,62.32
2016-06-04T07:54:43.700Z,62.51
2016-06-04T07:55:43.860Z,62.13
2016-06-04T07:56:43.769Z,62.03
2016-06-04T07:57:43.787Z,61.65
2016-06-04T07:58:43.806Z,61.55
2016-06-04T07:59:43.855Z,61.65
2016-06-04T08:00:43.873Z,61.65
2016-06-04T08:01:43.892Z,61.65
2016-06-04T08:02:43.925Z,61.16
2016-06-04T08:03:43.944Z,61.65
2016-06-04T08:04:43.962Z,61.65
2016-06-04T08:05:43.839Z,61.55
2016-06-04T08:06:44.014Z,61.65
2016-06-04T08:07:44.049Z,61.84
2016-06-04T08:08:44.067Z,61.46
2016-06-04T08:09:44.085Z,61.46
2016-06-04T08:10:44.119Z,61.65
2016-06-04T08:11:44.137Z,61.55
2016-06-04T08:12:44.265Z,61.65
2016-06-04T08:13:44.205Z,61.65
2016-06-04T08:14:44.223Z,61.55
2016-06-04T08:15:44.242Z,61.74
2016-06-04T08:16:44.323Z,61.74
2016-06-04T08:17:44.326Z,61.26
2016-06-04T08:18:44.343Z,61.36
2016-06-04T08:19:44.362Z,61.26
2016-06-04T08:20:44.224Z,61.46
2016-06-04T08:21:44.398Z,61.36
2016-06-04T08:22:44.432Z,61.74
2016-06-04T08:23:44.466Z,60.88
2016-06-04T08:24:44.485Z,61.16
2016-06-04T08:25:44.347Z,61.16
2016-06-04T08:26:44.381Z,61.26
2016-06-04T08:27:44.556Z,61.26
2016-06-04T08:28:44.573Z,61.16
2016-06-04T08:29:44.608Z,60.88
2016-06-04T08:30:44.625Z,60.78
2016-06-04T08:31:44.675Z,60.88
2016-06-04T08:32:44.678Z,60.69
2016-06-04T08:33:44.711Z,61.07
2016-06-04T08:34:44.731Z,60.69
2016-06-04T08:35:44.764Z,61.26
2016-06-04T08:36:44.813Z,60.81
2016-06-04T08:37:44.816Z,60.81
2016-06-04T08:38:44.850Z,61.19
2016-06-04T08:39:44.868Z,60.88
2016-06-04T08:40:44.887Z,60.59
2016-06-04T08:41:44.921Z,60.72
2016-06-04T08:42:45.376Z,60.72
2016-06-04T08:43:44.973Z,60.52
2016-06-04T08:44:45.008Z,60.91
2016-06-04T08:45:45.026Z,60.72
2016-06-04T08:46:45.060Z,60.72
2016-06-04T08:47:45.124Z,60.62
2016-06-04T08:48:45.096Z,60.62
2016-06-04T08:49:45.130Z,60.62
2016-06-04T08:50:45.148Z,60.24
2016-06-04T08:51:45.182Z,60.42
2016-06-04T08:52:45.201Z,60.14
2016-06-04T08:53:45.234Z,60.42
2016-06-04T08:54:45.268Z,60.33
2016-06-04T08:55:45.287Z,60.14
2016-06-04T08:56:45.305Z,60.04
2016-06-04T08:57:45.339Z,59.94
2016-06-04T08:58:45.373Z,60.04
2016-06-04T08:59:45.391Z,60.14
2016-06-04T09:00:45.409Z,60.24
2016-06-04T09:01:45.444Z,60.24
2016-06-04T09:02:45.462Z,59.85
2016-06-04T09:03:45.527Z,60.04
2016-06-04T09:04:45.514Z,59.85
2016-06-04T09:05:45.548Z,59.56
2016-06-04T09:06:45.598Z,59.94
2016-06-04T09:07:45.600Z,60.14
2016-06-04T09:08:45.619Z,60.04
2016-06-04T09:09:45.653Z,60.33
2016-06-04T09:10:45.671Z,59.85
2016-06-04T09:11:45.705Z,59.66
2016-06-04T09:12:45.724Z,59.66
2016-06-04T09:13:45.757Z,59.66
2016-06-04T09:14:45.775Z,59.37
2016-06-04T09:15:45.809Z,59.47
2016-06-04T09:16:45.828Z,59.37
2016-06-04T09:17:45.862Z,59.66
2016-06-04T09:18:45.879Z,59.47
2016-06-04T09:19:45.914Z,59.27
2016-06-04T09:20:45.932Z,59.27
2016-06-04T09:21:45.966Z,59.37
2016-06-04T09:22:46.001Z,59.37
2016-06-04T09:23:46.018Z,59.47
2016-06-04T09:24:46.037Z,59.37
2016-06-04T09:25:46.071Z,59.37
2016-06-04T09:26:46.089Z,59.59
2016-06-04T09:27:46.123Z,59.75
2016-06-04T09:28:46.359Z,59.56
2016-06-04T09:29:46.176Z,59.2
2016-06-04T09:30:46.193Z,59.4
2016-06-04T09:31:46.227Z,59.3
2016-06-04T09:32:46.261Z,59.11
2016-06-04T09:33:46.281Z,59.2
2016-06-04T09:34:46.298Z,59.11
2016-06-04T09:35:46.332Z,59.11
2016-06-04T09:36:46.366Z,59.2
2016-06-04T09:37:46.384Z,59.01
2016-06-04T09:38:46.419Z,58.63
2016-06-04T09:39:46.436Z,59.01
2016-06-04T09:40:46.470Z,59.01
2016-06-04T09:41:46.505Z,59.01
2016-06-04T09:42:46.523Z,59.01
2016-06-04T09:43:46.541Z,58.82
2016-06-04T09:44:46.575Z,58.44
2016-06-04T09:45:46.593Z,58.72
2016-06-04T09:46:46.627Z,58.44
2016-06-04T09:47:46.646Z,58.82
2016-06-04T09:48:46.679Z,58.63
2016-06-04T09:49:46.713Z,58.63
2016-06-04T09:50:46.747Z,58.72
2016-06-04T09:51:46.750Z,58.92
2016-06-04T09:52:46.784Z,58.72
2016-06-04T09:53:46.801Z,58.34
2016-06-04T09:54:46.837Z,57.86
2016-06-04T09:55:46.870Z,58.53
2016-06-04T09:56:46.888Z,58.44
2016-06-04T09:57:46.922Z,57.86
2016-06-04T09:58:47.098Z,58.05
2016-06-04T09:59:47.021Z,58.15
2016-06-04T10:00:47.009Z,58.24
2016-06-04T10:01:47.026Z,58.44
2016-06-04T10:02:47.045Z,58.24
2016-06-04T10:03:47.079Z,58.34
2016-06-04T10:04:47.114Z,58.15
2016-06-04T10:05:47.148Z,58.15
2016-06-04T10:06:47.210Z,58.24
2016-06-04T10:07:47.256Z,58.15
2016-06-04T10:08:47.318Z,58.15
2016-06-04T10:09:47.364Z,57.95
2016-06-04T10:10:47.414Z,57.57
2016-06-04T10:11:47.443Z,57.95
2016-06-04T10:12:47.487Z,57.76
2016-06-04T10:13:47.531Z,57.95
2016-06-04T10:14:47.590Z,57.95
2016-06-04T10:15:47.584Z,57.76
2016-06-04T10:16:47.621Z,57.86
2016-06-04T10:17:47.657Z,57.57
2016-06-04T10:18:47.679Z,58.15
2016-06-04T10:19:47.717Z,57.76
2016-06-04T10:20:47.738Z,57.79
2016-06-04T10:21:47.617Z,57.37
2016-06-04T10:22:47.808Z,57.5
2016-06-04T10:23:47.828Z,57.67
2016-06-04T10:24:47.848Z,57.37
2016-06-04T10:25:47.726Z,57.37
2016-06-04T10:26:47.932Z,57.57
2016-06-04T10:27:48.749Z,57.28
2016-06-04T10:28:48.438Z,57.28
2016-06-04T10:29:47.989Z,57.47
2016-06-04T10:30:48.023Z,57.47
2016-06-04T10:31:48.041Z,57.6
2016-06-04T10:32:48.075Z,57.5
2016-06-04T10:33:48.093Z,57.4
2016-06-04T10:34:48.127Z,57.47
2016-06-04T10:35:48.146Z,57.47
2016-06-04T10:36:48.195Z,57.5
2016-06-04T10:37:48.213Z,57.89
2016-06-04T10:38:48.232Z,57.76
2016-06-04T10:39:48.266Z,57.47
2016-06-04T10:40:48.284Z,57.6
2016-06-04T10:41:48.318Z,57.5
2016-06-04T10:42:49.227Z,57.69
2016-06-04T10:43:48.340Z,57.5
2016-06-04T10:44:48.248Z,57.79
2016-06-04T10:45:48.423Z,57.31
2016-06-04T10:46:48.441Z,56.92
2016-06-04T10:47:48.476Z,57.12
2016-06-04T10:48:48.509Z,57.02
2016-06-04T10:49:48.542Z,57.5
2016-06-04T10:50:48.561Z,57.4
2016-06-04T10:51:48.580Z,57.57
2016-06-04T10:52:48.614Z,57.4
2016-06-04T10:53:48.647Z,57.02
2016-06-04T10:54:48.666Z,56.9
2016-06-04T10:55:48.699Z,57.21
2016-06-04T10:56:48.718Z,57.21
2016-06-04T10:57:48.627Z,57.21
2016-06-04T10:58:48.769Z,56.82
2016-06-04T10:59:48.805Z,56.92
2016-06-04T11:00:48.822Z,56.63
2016-06-04T11:01:48.857Z,56.92
2016-06-04T11:02:48.906Z,56.73
2016-06-04T11:03:48.909Z,57.02
2016-06-04T11:04:48.943Z,56.9
2016-06-04T11:05:48.961Z,57.02
2016-06-04T11:06:48.995Z,56.92
2016-06-04T11:07:49.013Z,56.82
2016-06-04T11:08:49.047Z,57.4
2016-06-04T11:09:49.081Z,57.02
2016-06-04T11:10:49.099Z,57.02
2016-06-04T11:11:49.133Z,57.02
2016-06-04T11:12:49.152Z,56.92
2016-06-04T11:13:49.029Z,57.02
2016-06-04T11:14:49.204Z,57.02
2016-06-04T11:15:49.254Z,56.92
2016-06-04T11:16:49.257Z,57.4
2016-06-04T11:17:49.290Z,57.12
2016-06-04T11:18:49.309Z,56.92
2016-06-04T11:19:49.343Z,56.92
2016-06-04T11:20:49.376Z,56.92
2016-06-04T11:21:49.395Z,56.73
2016-06-04T11:22:49.428Z,56.92
2016-06-04T11:23:49.462Z,56.92
2016-06-04T11:24:49.481Z,56.92
2016-06-04T11:25:49.515Z,56.82
2016-06-04T11:26:49.533Z,56.92
2016-06-04T11:27:50.473Z,57.31
2016-06-04T11:28:49.586Z,56.82
2016-06-04T11:29:49.620Z,57.02
2016-06-04T11:30:49.638Z,57.02
2016-06-04T11:31:49.672Z,56.82
2016-06-04T11:32:49.690Z,56.92
2016-06-04T11:33:49.724Z,56.54
2016-06-04T11:34:49.758Z,56.54
2016-06-04T11:35:49.792Z,56.44
2016-06-04T11:36:49.794Z,56.73
2016-06-04T11:37:49.828Z,56.15
2016-06-04T11:38:49.878Z,56.44
2016-06-04T11:39:49.880Z,56.25
2016-06-04T11:40:49.915Z,56.15
2016-06-04T11:41:50.542Z,56.54
2016-06-04T11:42:49.967Z,56.44
2016-06-04T11:43:50.000Z,56.15
2016-06-04T11:44:50.019Z,55.77
2016-06-04T11:45:50.068Z,55.67
2016-06-04T11:46:50.070Z,55.48
2016-06-04T11:47:50.106Z,55.96
2016-06-04T11:48:50.124Z,55.57
2016-06-04T11:49:50.157Z,55.48
2016-06-04T11:50:50.192Z,55.79
2016-06-04T11:51:50.242Z,55.7
2016-06-04T11:52:50.244Z,55.51
2016-06-04T11:53:50.262Z,55.6
2016-06-04T11:54:50.296Z,55.31
2016-06-04T11:55:50.330Z,55.22
2016-06-04T11:56:50.207Z,55.12
2016-06-04T11:57:50.383Z,55.12
2016-06-04T11:58:50.400Z,55.41
2016-06-04T11:59:50.434Z,55.51
2016-06-04T12:00:50.453Z,55.41
2016-06-04T12:01:50.486Z,55.12
2016-06-04T12:02:50.505Z,54.64
2016-06-04T12:03:50.538Z,54.54
2016-06-04T12:04:50.573Z,54.64
2016-06-04T12:05:50.591Z,54.44
2016-06-04T12:06:50.625Z,54.35
2016-06-04T12:07:50.643Z,54.74
2016-06-04T12:08:50.678Z,54.44
2016-06-04T12:09:50.696Z,53.89
2016-06-04T12:10:50.746Z,54.38
2016-06-04T12:11:50.623Z,53.99
2016-06-04T12:12:50.782Z,53.77
2016-06-04T12:13:50.816Z,53.99
2016-06-04T12:14:50.849Z,53.61
2016-06-04T12:15:50.868Z,53.51
2016-06-04T12:16:50.902Z,53.41
2016-06-04T12:17:50.920Z,53.51
2016-06-04T12:18:50.970Z,53.51
2016-06-04T12:19:50.988Z,53.8
2016-06-04T12:20:51.007Z,53.22
2016-06-04T12:21:51.025Z,52.83
2016-06-04T12:22:51.059Z,53.13
2016-06-04T12:23:51.092Z,53.13
2016-06-04T12:24:51.111Z,53.13
2016-06-04T12:25:51.145Z,53.13
2016-06-04T12:26:51.163Z,52.93
2016-06-04T12:27:51.198Z,53.13
2016-06-04T12:28:51.887Z,52.73
2016-06-04T12:29:51.250Z,52.73
2016-06-04T12:30:51.283Z,52.64
2016-06-04T12:31:51.302Z,52.45
2016-06-04T12:32:51.336Z,52.55
2016-06-04T12:33:51.354Z,52.35
2016-06-04T12:34:51.388Z,52.35
2016-06-04T12:35:51.422Z,52.09
2016-06-04T12:36:51.441Z,52.25
2016-06-04T12:37:51.474Z,52.19
2016-06-04T12:38:51.493Z,52.25
2016-06-04T12:39:51.527Z,52.19
2016-06-04T12:40:51.560Z,52.16
2016-06-04T12:41:51.594Z,52.16
2016-06-04T12:42:51.613Z,52.28
2016-06-04T12:43:51.646Z,52.37
2016-06-04T12:44:51.665Z,52.19
2016-06-04T12:45:51.698Z,52.09
2016-06-04T12:46:51.733Z,52.09
2016-06-04T12:47:51.751Z,52.28
2016-06-04T12:48:51.770Z,52.37
2016-06-04T12:49:51.803Z,51.61
2016-06-04T12:50:51.837Z,51.51
2016-06-04T12:51:51.871Z,51.7
2016-06-04T12:52:51.889Z,51.8
2016-06-04T12:53:51.908Z,51.7
2016-06-04T12:54:51.942Z,51.8
2016-06-04T12:55:51.976Z,51.7